sensor_id;sensor_type;location;lat;lon;timestamp;P1;durP1;ratioP1;P2;durP2;ratioP2
10416;SDS011;62605;49.432;8.680;2023-06-26T00:00:40;4.55;;;3.33;;
10416;SDS011;62605;49.432;8.680;2023-06-26T00:03:09;4.97;;;3.45;;
10416;SDS011;62605;49.432;8.680;2023-06-26T00:05:40;5.00;;;3.40;;
10416;SDS011;62605;49.432;8.680;2023-06-26T00:08:09;5.47;;;3.55;;
10416;SDS011;62605;49.432;8.680;2023-06-26T00:10:37;6.88;;;3.28;;
10416;SDS011;62605;49.432;8.680;2023-06-26T00:13:07;5.97;;;3.28;;
10416;SDS011;62605;49.432;8.680;2023-06-26T00:15:40;5.78;;;3.45;;
10416;SDS011;62605;49.432;8.680;2023-06-26T00:18:14;4.53;;;3.42;;
10416;SDS011;62605;49.432;8.680;2023-06-26T00:20:45;6.05;;;3.00;;
10416;SDS011;62605;49.432;8.680;2023-06-26T00:23:13;5.03;;;3.25;;
10416;SDS011;62605;49.432;8.680;2023-06-26T00:25:44;4.55;;;3.40;;
10416;SDS011;62605;49.432;8.680;2023-06-26T00:28:16;5.68;;;3.45;;
10416;SDS011;62605;49.432;8.680;2023-06-26T00:30:46;5.07;;;3.03;;
10416;SDS011;62605;49.432;8.680;2023-06-26T00:33:15;5.63;;;3.53;;
10416;SDS011;62605;49.432;8.680;2023-06-26T00:35:44;5.00;;;2.95;;
10416;SDS011;62605;49.432;8.680;2023-06-26T00:38:13;3.40;;;3.10;;
10416;SDS011;62605;49.432;8.680;2023-06-26T00:40:43;6.18;;;4.13;;
10416;SDS011;62605;49.432;8.680;2023-06-26T00:43:11;5.85;;;3.42;;
10416;SDS011;62605;49.432;8.680;2023-06-26T00:45:40;6.45;;;3.80;;
10416;SDS011;62605;49.432;8.680;2023-06-26T00:48:10;4.65;;;3.28;;
10416;SDS011;62605;49.432;8.680;2023-06-26T00:50:39;6.03;;;3.55;;
10416;SDS011;62605;49.432;8.680;2023-06-26T00:53:09;6.00;;;3.47;;
10416;SDS011;62605;49.432;8.680;2023-06-26T00:55:38;3.67;;;2.97;;
10416;SDS011;62605;49.432;8.680;2023-06-26T00:58:06;3.92;;;3.05;;
10416;SDS011;62605;49.432;8.680;2023-06-26T01:00:34;3.22;;;2.92;;
10416;SDS011;62605;49.432;8.680;2023-06-26T01:03:04;4.15;;;3.33;;
10416;SDS011;62605;49.432;8.680;2023-06-26T01:05:31;6.10;;;3.40;;
10416;SDS011;62605;49.432;8.680;2023-06-26T01:07:59;5.40;;;3.58;;
10416;SDS011;62605;49.432;8.680;2023-06-26T01:10:38;4.90;;;3.72;;
10416;SDS011;62605;49.432;8.680;2023-06-26T01:13:06;5.28;;;3.30;;
10416;SDS011;62605;49.432;8.680;2023-06-26T01:15:35;4.90;;;3.42;;
10416;SDS011;62605;49.432;8.680;2023-06-26T01:18:05;3.88;;;3.08;;
10416;SDS011;62605;49.432;8.680;2023-06-26T01:20:34;5.65;;;3.40;;
10416;SDS011;62605;49.432;8.680;2023-06-26T01:23:10;5.47;;;3.75;;
10416;SDS011;62605;49.432;8.680;2023-06-26T01:25:46;5.68;;;3.60;;
10416;SDS011;62605;49.432;8.680;2023-06-26T01:28:24;4.75;;;3.50;;
10416;SDS011;62605;49.432;8.680;2023-06-26T01:30:53;3.78;;;3.33;;
10416;SDS011;62605;49.432;8.680;2023-06-26T01:33:21;4.15;;;3.20;;
10416;SDS011;62605;49.432;8.680;2023-06-26T01:35:49;4.38;;;3.65;;
10416;SDS011;62605;49.432;8.680;2023-06-26T01:38:18;4.20;;;3.50;;
10416;SDS011;62605;49.432;8.680;2023-06-26T01:40:46;5.82;;;3.17;;
10416;SDS011;62605;49.432;8.680;2023-06-26T01:43:15;6.00;;;3.78;;
10416;SDS011;62605;49.432;8.680;2023-06-26T01:45:53;5.22;;;3.60;;
10416;SDS011;62605;49.432;8.680;2023-06-26T01:48:28;4.35;;;3.20;;
10416;SDS011;62605;49.432;8.680;2023-06-26T01:51:03;5.13;;;3.60;;
10416;SDS011;62605;49.432;8.680;2023-06-26T01:53:35;5.07;;;3.95;;
10416;SDS011;62605;49.432;8.680;2023-06-26T01:56:07;5.45;;;3.83;;
10416;SDS011;62605;49.432;8.680;2023-06-26T01:58:40;4.88;;;4.18;;
10416;SDS011;62605;49.432;8.680;2023-06-26T02:01:12;5.68;;;3.42;;
10416;SDS011;62605;49.432;8.680;2023-06-26T02:03:43;4.82;;;3.80;;
10416;SDS011;62605;49.432;8.680;2023-06-26T02:06:12;4.93;;;4.07;;
10416;SDS011;62605;49.432;8.680;2023-06-26T02:08:41;4.43;;;3.75;;
10416;SDS011;62605;49.432;8.680;2023-06-26T02:11:09;4.20;;;3.58;;
10416;SDS011;62605;49.432;8.680;2023-06-26T02:13:37;4.45;;;3.20;;
10416;SDS011;62605;49.432;8.680;2023-06-26T02:16:06;6.05;;;3.78;;
10416;SDS011;62605;49.432;8.680;2023-06-26T02:18:34;3.92;;;3.17;;
10416;SDS011;62605;49.432;8.680;2023-06-26T02:21:03;5.05;;;3.90;;
10416;SDS011;62605;49.432;8.680;2023-06-26T02:23:31;7.22;;;3.75;;
10416;SDS011;62605;49.432;8.680;2023-06-26T02:25:58;6.65;;;3.83;;
10416;SDS011;62605;49.432;8.680;2023-06-26T02:28:26;3.97;;;3.22;;
10416;SDS011;62605;49.432;8.680;2023-06-26T02:30:53;5.57;;;3.75;;
10416;SDS011;62605;49.432;8.680;2023-06-26T02:33:21;5.97;;;3.78;;
10416;SDS011;62605;49.432;8.680;2023-06-26T02:35:50;5.43;;;3.85;;
10416;SDS011;62605;49.432;8.680;2023-06-26T02:38:19;5.10;;;3.63;;
10416;SDS011;62605;49.432;8.680;2023-06-26T02:40:47;7.82;;;4.00;;
10416;SDS011;62605;49.432;8.680;2023-06-26T02:43:15;6.55;;;3.70;;
10416;SDS011;62605;49.432;8.680;2023-06-26T02:45:46;5.20;;;3.80;;
10416;SDS011;62605;49.432;8.680;2023-06-26T02:48:18;4.32;;;3.72;;
10416;SDS011;62605;49.432;8.680;2023-06-26T02:50:46;5.80;;;4.22;;
10416;SDS011;62605;49.432;8.680;2023-06-26T02:53:15;4.72;;;3.85;;
10416;SDS011;62605;49.432;8.680;2023-06-26T02:55:43;5.57;;;4.03;;
10416;SDS011;62605;49.432;8.680;2023-06-26T02:58:12;5.05;;;4.13;;
10416;SDS011;62605;49.432;8.680;2023-06-26T03:00:40;4.93;;;3.70;;
10416;SDS011;62605;49.432;8.680;2023-06-26T03:03:08;5.95;;;4.15;;
10416;SDS011;62605;49.432;8.680;2023-06-26T03:05:36;6.80;;;4.15;;
10416;SDS011;62605;49.432;8.680;2023-06-26T03:08:03;4.88;;;3.60;;
10416;SDS011;62605;49.432;8.680;2023-06-26T03:10:35;5.20;;;4.15;;
10416;SDS011;62605;49.432;8.680;2023-06-26T03:13:03;5.53;;;4.00;;
10416;SDS011;62605;49.432;8.680;2023-06-26T03:15:31;7.57;;;3.72;;
10416;SDS011;62605;49.432;8.680;2023-06-26T03:18:01;4.85;;;4.13;;
10416;SDS011;62605;49.432;8.680;2023-06-26T03:20:29;5.45;;;3.70;;
10416;SDS011;62605;49.432;8.680;2023-06-26T03:22:57;5.60;;;4.18;;
10416;SDS011;62605;49.432;8.680;2023-06-26T03:25:24;5.93;;;4.03;;
10416;SDS011;62605;49.432;8.680;2023-06-26T03:27:53;5.82;;;4.13;;
10416;SDS011;62605;49.432;8.680;2023-06-26T03:30:21;5.65;;;3.70;;
10416;SDS011;62605;49.432;8.680;2023-06-26T03:32:48;4.85;;;3.67;;
10416;SDS011;62605;49.432;8.680;2023-06-26T03:35:15;8.50;;;3.97;;
10416;SDS011;62605;49.432;8.680;2023-06-26T03:37:43;6.43;;;4.50;;
10416;SDS011;62605;49.432;8.680;2023-06-26T03:40:11;6.03;;;4.00;;
10416;SDS011;62605;49.432;8.680;2023-06-26T03:43:10;5.10;;;4.05;;
10416;SDS011;62605;49.432;8.680;2023-06-26T03:45:46;5.28;;;4.28;;
10416;SDS011;62605;49.432;8.680;2023-06-26T03:48:33;6.95;;;3.72;;
10416;SDS011;62605;49.432;8.680;2023-06-26T03:51:23;4.88;;;3.50;;
10416;SDS011;62605;49.432;8.680;2023-06-26T03:54:37;7.70;;;4.00;;
10416;SDS011;62605;49.432;8.680;2023-06-26T04:08:09;9.88;;;4.00;;
10416;SDS011;62605;49.432;8.680;2023-06-26T04:10:52;5.03;;;3.70;;
10416;SDS011;62605;49.432;8.680;2023-06-26T04:13:22;4.25;;;3.50;;
10416;SDS011;62605;49.432;8.680;2023-06-26T04:15:50;5.25;;;3.72;;
10416;SDS011;62605;49.432;8.680;2023-06-26T04:18:36;6.38;;;3.78;;
10416;SDS011;62605;49.432;8.680;2023-06-26T04:21:13;4.05;;;3.45;;
10416;SDS011;62605;49.432;8.680;2023-06-26T04:23:46;4.78;;;3.75;;
10416;SDS011;62605;49.432;8.680;2023-06-26T04:26:38;6.78;;;3.60;;
10416;SDS011;62605;49.432;8.680;2023-06-26T04:29:10;5.93;;;3.70;;
10416;SDS011;62605;49.432;8.680;2023-06-26T04:34:27;4.32;;;3.67;;
10416;SDS011;62605;49.432;8.680;2023-06-26T04:36:59;5.57;;;3.78;;
10416;SDS011;62605;49.432;8.680;2023-06-26T04:39:30;5.95;;;3.47;;
10416;SDS011;62605;49.432;8.680;2023-06-26T04:42:01;4.20;;;3.80;;
10416;SDS011;62605;49.432;8.680;2023-06-26T04:44:53;5.35;;;4.32;;
10416;SDS011;62605;49.432;8.680;2023-06-26T04:47:20;5.95;;;4.07;;
10416;SDS011;62605;49.432;8.680;2023-06-26T04:49:50;5.38;;;4.10;;
10416;SDS011;62605;49.432;8.680;2023-06-26T04:52:17;4.43;;;3.42;;
10416;SDS011;62605;49.432;8.680;2023-06-26T04:54:48;5.53;;;3.78;;
10416;SDS011;62605;49.432;8.680;2023-06-26T04:57:16;4.35;;;3.63;;
10416;SDS011;62605;49.432;8.680;2023-06-26T04:59:44;5.80;;;3.80;;
10416;SDS011;62605;49.432;8.680;2023-06-26T05:02:12;5.57;;;4.00;;
10416;SDS011;62605;49.432;8.680;2023-06-26T05:04:45;5.78;;;3.60;;
10416;SDS011;62605;49.432;8.680;2023-06-26T05:07:16;7.00;;;3.85;;
10416;SDS011;62605;49.432;8.680;2023-06-26T05:10:10;5.53;;;3.97;;
10416;SDS011;62605;49.432;8.680;2023-06-26T05:12:40;5.90;;;4.03;;
10416;SDS011;62605;49.432;8.680;2023-06-26T05:15:08;6.57;;;4.28;;
10416;SDS011;62605;49.432;8.680;2023-06-26T05:17:43;4.70;;;3.63;;
10416;SDS011;62605;49.432;8.680;2023-06-26T05:20:25;5.65;;;4.20;;
10416;SDS011;62605;49.432;8.680;2023-06-26T05:22:54;6.07;;;4.35;;
10416;SDS011;62605;49.432;8.680;2023-06-26T05:25:23;5.50;;;4.10;;
10416;SDS011;62605;49.432;8.680;2023-06-26T05:27:52;6.82;;;4.38;;
10416;SDS011;62605;49.432;8.680;2023-06-26T05:30:19;4.85;;;3.63;;
10416;SDS011;62605;49.432;8.680;2023-06-26T05:32:47;5.13;;;4.22;;
10416;SDS011;62605;49.432;8.680;2023-06-26T05:35:16;5.68;;;4.35;;
10416;SDS011;62605;49.432;8.680;2023-06-26T05:37:46;6.20;;;3.92;;
10416;SDS011;62605;49.432;8.680;2023-06-26T05:40:17;7.13;;;4.28;;
10416;SDS011;62605;49.432;8.680;2023-06-26T05:42:47;4.93;;;4.20;;
10416;SDS011;62605;49.432;8.680;2023-06-26T05:45:14;6.22;;;4.65;;
10416;SDS011;62605;49.432;8.680;2023-06-26T05:47:41;5.97;;;4.45;;
10416;SDS011;62605;49.432;8.680;2023-06-26T05:50:10;6.78;;;4.25;;
10416;SDS011;62605;49.432;8.680;2023-06-26T05:52:38;7.05;;;4.45;;
10416;SDS011;62605;49.432;8.680;2023-06-26T05:55:06;5.28;;;4.07;;
10416;SDS011;62605;49.432;8.680;2023-06-26T05:57:34;5.60;;;4.35;;
10416;SDS011;62605;49.432;8.680;2023-06-26T06:00:08;5.32;;;3.80;;
10416;SDS011;62605;49.432;8.680;2023-06-26T06:02:36;5.40;;;4.13;;
10416;SDS011;62605;49.432;8.680;2023-06-26T06:05:05;6.00;;;4.35;;
10416;SDS011;62605;49.432;8.680;2023-06-26T06:07:34;7.63;;;4.15;;
10416;SDS011;62605;49.432;8.680;2023-06-26T06:10:01;9.63;;;4.78;;
10416;SDS011;62605;49.432;8.680;2023-06-26T06:12:30;6.13;;;4.05;;
10416;SDS011;62605;49.432;8.680;2023-06-26T06:14:57;5.47;;;3.90;;
10416;SDS011;62605;49.432;8.680;2023-06-26T06:17:26;8.93;;;5.20;;
10416;SDS011;62605;49.432;8.680;2023-06-26T06:19:53;8.75;;;6.22;;
10416;SDS011;62605;49.432;8.680;2023-06-26T06:22:21;8.68;;;5.68;;
10416;SDS011;62605;49.432;8.680;2023-06-26T06:24:48;6.07;;;4.65;;
10416;SDS011;62605;49.432;8.680;2023-06-26T06:27:17;5.50;;;4.18;;
10416;SDS011;62605;49.432;8.680;2023-06-26T06:29:44;6.68;;;4.53;;
10416;SDS011;62605;49.432;8.680;2023-06-26T06:32:11;5.95;;;4.25;;
10416;SDS011;62605;49.432;8.680;2023-06-26T06:34:40;5.90;;;4.65;;
10416;SDS011;62605;49.432;8.680;2023-06-26T06:37:09;5.68;;;4.47;;
10416;SDS011;62605;49.432;8.680;2023-06-26T06:39:36;8.10;;;4.32;;
10416;SDS011;62605;49.432;8.680;2023-06-26T06:42:04;6.40;;;4.50;;
10416;SDS011;62605;49.432;8.680;2023-06-26T06:44:31;5.85;;;4.32;;
10416;SDS011;62605;49.432;8.680;2023-06-26T06:46:58;5.20;;;4.28;;
10416;SDS011;62605;49.432;8.680;2023-06-26T06:49:26;8.05;;;3.90;;
10416;SDS011;62605;49.432;8.680;2023-06-26T06:51:54;7.63;;;4.53;;
10416;SDS011;62605;49.432;8.680;2023-06-26T06:54:21;4.63;;;3.85;;
10416;SDS011;62605;49.432;8.680;2023-06-26T06:56:51;7.38;;;4.00;;
10416;SDS011;62605;49.432;8.680;2023-06-26T06:59:18;5.88;;;4.63;;
10416;SDS011;62605;49.432;8.680;2023-06-26T07:01:46;7.32;;;4.05;;
10416;SDS011;62605;49.432;8.680;2023-06-26T07:04:13;6.22;;;4.43;;
10416;SDS011;62605;49.432;8.680;2023-06-26T07:06:40;6.40;;;4.13;;
10416;SDS011;62605;49.432;8.680;2023-06-26T07:09:08;11.10;;;4.70;;
10416;SDS011;62605;49.432;8.680;2023-06-26T07:11:35;5.55;;;4.50;;
10416;SDS011;62605;49.432;8.680;2023-06-26T07:14:02;7.70;;;4.20;;
10416;SDS011;62605;49.432;8.680;2023-06-26T07:16:29;6.63;;;4.40;;
10416;SDS011;62605;49.432;8.680;2023-06-26T07:18:57;5.63;;;4.43;;
10416;SDS011;62605;49.432;8.680;2023-06-26T07:21:24;5.60;;;4.10;;
10416;SDS011;62605;49.432;8.680;2023-06-26T07:23:51;7.72;;;4.30;;
10416;SDS011;62605;49.432;8.680;2023-06-26T07:26:20;5.05;;;4.47;;
10416;SDS011;62605;49.432;8.680;2023-06-26T07:28:48;5.88;;;4.55;;
10416;SDS011;62605;49.432;8.680;2023-06-26T07:31:15;6.75;;;4.75;;
10416;SDS011;62605;49.432;8.680;2023-06-26T07:33:43;6.22;;;4.80;;
10416;SDS011;62605;49.432;8.680;2023-06-26T07:36:10;6.93;;;4.57;;
10416;SDS011;62605;49.432;8.680;2023-06-26T07:38:37;5.22;;;4.18;;
10416;SDS011;62605;49.432;8.680;2023-06-26T07:41:05;5.97;;;4.20;;
10416;SDS011;62605;49.432;8.680;2023-06-26T07:43:33;5.53;;;4.65;;
10416;SDS011;62605;49.432;8.680;2023-06-26T07:46:00;7.47;;;4.47;;
10416;SDS011;62605;49.432;8.680;2023-06-26T07:48:28;6.63;;;4.78;;
10416;SDS011;62605;49.432;8.680;2023-06-26T07:50:55;6.45;;;4.72;;
10416;SDS011;62605;49.432;8.680;2023-06-26T07:53:23;10.50;;;4.70;;
10416;SDS011;62605;49.432;8.680;2023-06-26T07:55:57;5.72;;;4.70;;
10416;SDS011;62605;49.432;8.680;2023-06-26T07:58:24;6.00;;;4.75;;
10416;SDS011;62605;49.432;8.680;2023-06-26T08:00:53;6.88;;;4.68;;
10416;SDS011;62605;49.432;8.680;2023-06-26T08:03:20;7.28;;;4.80;;
10416;SDS011;62605;49.432;8.680;2023-06-26T08:05:46;6.20;;;4.65;;
10416;SDS011;62605;49.432;8.680;2023-06-26T08:08:14;6.65;;;4.60;;
10416;SDS011;62605;49.432;8.680;2023-06-26T08:10:40;7.93;;;4.90;;
10416;SDS011;62605;49.432;8.680;2023-06-26T08:13:07;5.47;;;4.45;;
10416;SDS011;62605;49.432;8.680;2023-06-26T08:15:35;6.45;;;4.30;;
10416;SDS011;62605;49.432;8.680;2023-06-26T08:18:03;27.92;;;6.32;;
10416;SDS011;62605;49.432;8.680;2023-06-26T08:20:30;7.72;;;5.00;;
10416;SDS011;62605;49.432;8.680;2023-06-26T08:23:00;5.55;;;3.88;;
10416;SDS011;62605;49.432;8.680;2023-06-26T08:25:28;8.60;;;4.85;;
10416;SDS011;62605;49.432;8.680;2023-06-26T08:27:55;10.55;;;5.00;;
10416;SDS011;62605;49.432;8.680;2023-06-26T08:30:22;5.38;;;4.47;;
10416;SDS011;62605;49.432;8.680;2023-06-26T08:32:53;6.40;;;4.85;;
10416;SDS011;62605;49.432;8.680;2023-06-26T08:35:21;5.43;;;4.40;;
10416;SDS011;62605;49.432;8.680;2023-06-26T08:37:48;5.35;;;4.78;;
10416;SDS011;62605;49.432;8.680;2023-06-26T08:40:16;10.77;;;5.03;;
10416;SDS011;62605;49.432;8.680;2023-06-26T08:42:44;6.63;;;4.90;;
10416;SDS011;62605;49.432;8.680;2023-06-26T08:45:12;6.70;;;4.82;;
10416;SDS011;62605;49.432;8.680;2023-06-26T08:47:39;7.05;;;4.18;;
10416;SDS011;62605;49.432;8.680;2023-06-26T08:50:08;6.45;;;4.13;;
10416;SDS011;62605;49.432;8.680;2023-06-26T08:52:41;5.78;;;4.00;;
10416;SDS011;62605;49.432;8.680;2023-06-26T08:55:12;4.88;;;4.07;;
10416;SDS011;62605;49.432;8.680;2023-06-26T08:57:41;5.40;;;4.07;;
10416;SDS011;62605;49.432;8.680;2023-06-26T09:00:08;5.30;;;4.13;;
10416;SDS011;62605;49.432;8.680;2023-06-26T09:02:40;6.40;;;4.05;;
10416;SDS011;62605;49.432;8.680;2023-06-26T09:05:07;5.43;;;4.65;;
10416;SDS011;62605;49.432;8.680;2023-06-26T09:07:34;5.43;;;4.35;;
10416;SDS011;62605;49.432;8.680;2023-06-26T09:10:03;6.00;;;4.53;;
10416;SDS011;62605;49.432;8.680;2023-06-26T09:12:30;5.38;;;4.43;;
10416;SDS011;62605;49.432;8.680;2023-06-26T09:14:58;4.55;;;3.90;;
10416;SDS011;62605;49.432;8.680;2023-06-26T09:17:29;6.72;;;4.65;;
10416;SDS011;62605;49.432;8.680;2023-06-26T09:19:56;4.82;;;4.15;;
10416;SDS011;62605;49.432;8.680;2023-06-26T09:22:23;5.43;;;4.60;;
10416;SDS011;62605;49.432;8.680;2023-06-26T09:24:52;6.68;;;4.28;;
10416;SDS011;62605;49.432;8.680;2023-06-26T09:27:21;5.25;;;4.38;;
10416;SDS011;62605;49.432;8.680;2023-06-26T09:29:48;5.88;;;4.50;;
10416;SDS011;62605;49.432;8.680;2023-06-26T09:32:16;6.75;;;4.50;;
10416;SDS011;62605;49.432;8.680;2023-06-26T09:34:43;4.82;;;4.13;;
10416;SDS011;62605;49.432;8.680;2023-06-26T09:37:13;4.78;;;4.18;;
10416;SDS011;62605;49.432;8.680;2023-06-26T09:39:40;5.75;;;4.53;;
10416;SDS011;62605;49.432;8.680;2023-06-26T09:42:07;5.22;;;3.80;;
10416;SDS011;62605;49.432;8.680;2023-06-26T09:44:44;7.07;;;4.47;;
10416;SDS011;62605;49.432;8.680;2023-06-26T09:47:13;7.88;;;4.10;;
10416;SDS011;62605;49.432;8.680;2023-06-26T09:49:44;5.13;;;4.22;;
10416;SDS011;62605;49.432;8.680;2023-06-26T09:52:13;6.25;;;4.50;;
10416;SDS011;62605;49.432;8.680;2023-06-26T09:54:41;7.75;;;4.80;;
10416;SDS011;62605;49.432;8.680;2023-06-26T09:57:10;5.63;;;4.32;;
10416;SDS011;62605;49.432;8.680;2023-06-26T09:59:38;5.32;;;4.82;;
10416;SDS011;62605;49.432;8.680;2023-06-26T10:02:07;5.03;;;4.53;;
10416;SDS011;62605;49.432;8.680;2023-06-26T10:04:36;9.25;;;4.75;;
10416;SDS011;62605;49.432;8.680;2023-06-26T10:07:04;6.90;;;4.78;;
10416;SDS011;62605;49.432;8.680;2023-06-26T10:09:35;9.00;;;4.75;;
10416;SDS011;62605;49.432;8.680;2023-06-26T10:12:09;5.80;;;4.60;;
10416;SDS011;62605;49.432;8.680;2023-06-26T10:14:41;5.03;;;4.40;;
10416;SDS011;62605;49.432;8.680;2023-06-26T10:17:10;4.90;;;4.40;;
10416;SDS011;62605;49.432;8.680;2023-06-26T10:19:44;4.60;;;3.90;;
10416;SDS011;62605;49.432;8.680;2023-06-26T10:22:14;4.63;;;3.97;;
10416;SDS011;62605;49.432;8.680;2023-06-26T10:24:43;4.10;;;3.70;;
10416;SDS011;62605;49.432;8.680;2023-06-26T10:27:13;5.43;;;4.13;;
10416;SDS011;62605;49.432;8.680;2023-06-26T10:29:42;5.57;;;4.20;;
10416;SDS011;62605;49.432;8.680;2023-06-26T10:32:12;5.43;;;4.25;;
10416;SDS011;62605;49.432;8.680;2023-06-26T10:34:40;4.40;;;3.92;;
10416;SDS011;62605;49.432;8.680;2023-06-26T10:37:07;4.10;;;3.70;;
10416;SDS011;62605;49.432;8.680;2023-06-26T10:39:47;4.85;;;3.95;;
10416;SDS011;62605;49.432;8.680;2023-06-26T10:42:16;5.80;;;4.25;;
10416;SDS011;62605;49.432;8.680;2023-06-26T10:44:44;5.57;;;4.35;;
10416;SDS011;62605;49.432;8.680;2023-06-26T10:47:28;4.60;;;4.20;;
10416;SDS011;62605;49.432;8.680;2023-06-26T10:50:18;4.60;;;3.83;;
10416;SDS011;62605;49.432;8.680;2023-06-26T10:52:46;4.95;;;4.30;;
10416;SDS011;62605;49.432;8.680;2023-06-26T10:55:34;4.80;;;4.25;;
10416;SDS011;62605;49.432;8.680;2023-06-26T10:58:02;7.90;;;4.70;;
10416;SDS011;62605;49.432;8.680;2023-06-26T11:00:30;4.90;;;4.30;;
10416;SDS011;62605;49.432;8.680;2023-06-26T11:02:59;4.78;;;4.18;;
10416;SDS011;62605;49.432;8.680;2023-06-26T11:05:26;6.25;;;4.53;;
10416;SDS011;62605;49.432;8.680;2023-06-26T11:08:04;5.50;;;4.55;;
10416;SDS011;62605;49.432;8.680;2023-06-26T11:10:47;7.65;;;4.22;;
10416;SDS011;62605;49.432;8.680;2023-06-26T11:13:17;6.07;;;4.75;;
10416;SDS011;62605;49.432;8.680;2023-06-26T11:15:45;6.72;;;4.78;;
10416;SDS011;62605;49.432;8.680;2023-06-26T11:18:14;4.50;;;3.90;;
10416;SDS011;62605;49.432;8.680;2023-06-26T11:20:42;5.32;;;4.03;;
10416;SDS011;62605;49.432;8.680;2023-06-26T11:23:09;7.53;;;4.63;;
10416;SDS011;62605;49.432;8.680;2023-06-26T11:25:36;5.00;;;4.20;;
10416;SDS011;62605;49.432;8.680;2023-06-26T11:28:04;4.97;;;4.40;;
10416;SDS011;62605;49.432;8.680;2023-06-26T11:30:31;4.50;;;3.92;;
10416;SDS011;62605;49.432;8.680;2023-06-26T11:33:05;5.55;;;4.40;;
10416;SDS011;62605;49.432;8.680;2023-06-26T11:35:34;5.25;;;4.13;;
10416;SDS011;62605;49.432;8.680;2023-06-26T11:38:02;5.72;;;3.95;;
10416;SDS011;62605;49.432;8.680;2023-06-26T11:40:30;6.45;;;4.68;;
10416;SDS011;62605;49.432;8.680;2023-06-26T11:42:59;5.72;;;5.13;;
10416;SDS011;62605;49.432;8.680;2023-06-26T11:45:27;9.50;;;4.72;;
10416;SDS011;62605;49.432;8.680;2023-06-26T11:47:55;6.30;;;4.35;;
10416;SDS011;62605;49.432;8.680;2023-06-26T11:50:22;8.25;;;4.57;;
10416;SDS011;62605;49.432;8.680;2023-06-26T11:52:54;5.68;;;4.00;;
10416;SDS011;62605;49.432;8.680;2023-06-26T11:55:22;5.28;;;4.40;;
10416;SDS011;62605;49.432;8.680;2023-06-26T11:57:49;6.32;;;4.78;;
10416;SDS011;62605;49.432;8.680;2023-06-26T12:00:16;4.90;;;3.90;;
10416;SDS011;62605;49.432;8.680;2023-06-26T12:02:44;6.70;;;3.92;;
10416;SDS011;62605;49.432;8.680;2023-06-26T12:05:12;4.45;;;4.05;;
10416;SDS011;62605;49.432;8.680;2023-06-26T12:07:40;7.45;;;4.13;;
10416;SDS011;62605;49.432;8.680;2023-06-26T12:10:12;5.28;;;4.07;;
10416;SDS011;62605;49.432;8.680;2023-06-26T12:12:41;4.88;;;3.78;;
10416;SDS011;62605;49.432;8.680;2023-06-26T12:15:09;6.00;;;4.18;;
10416;SDS011;62605;49.432;8.680;2023-06-26T12:17:40;4.93;;;3.67;;
10416;SDS011;62605;49.432;8.680;2023-06-26T12:20:16;4.55;;;3.88;;
10416;SDS011;62605;49.432;8.680;2023-06-26T12:22:45;4.72;;;3.38;;
10416;SDS011;62605;49.432;8.680;2023-06-26T12:25:14;4.78;;;3.63;;
10416;SDS011;62605;49.432;8.680;2023-06-26T12:27:44;4.43;;;3.60;;
10416;SDS011;62605;49.432;8.680;2023-06-26T12:30:12;4.68;;;4.00;;
10416;SDS011;62605;49.432;8.680;2023-06-26T12:32:40;3.28;;;2.97;;
10416;SDS011;62605;49.432;8.680;2023-06-26T12:35:10;6.03;;;3.42;;
10416;SDS011;62605;49.432;8.680;2023-06-26T12:37:37;5.07;;;3.42;;
10416;SDS011;62605;49.432;8.680;2023-06-26T12:40:17;4.45;;;3.47;;
10416;SDS011;62605;49.432;8.680;2023-06-26T12:42:47;4.05;;;3.38;;
10416;SDS011;62605;49.432;8.680;2023-06-26T12:45:14;4.22;;;3.83;;
10416;SDS011;62605;49.432;8.680;2023-06-26T12:47:42;4.20;;;3.55;;
10416;SDS011;62605;49.432;8.680;2023-06-26T12:50:11;7.47;;;3.67;;
10416;SDS011;62605;49.432;8.680;2023-06-26T12:52:44;7.43;;;3.50;;
10416;SDS011;62605;49.432;8.680;2023-06-26T12:55:12;3.22;;;2.88;;
10416;SDS011;62605;49.432;8.680;2023-06-26T12:57:45;6.38;;;3.17;;
10416;SDS011;62605;49.432;8.680;2023-06-26T13:00:17;3.60;;;2.70;;
10416;SDS011;62605;49.432;8.680;2023-06-26T13:02:44;3.35;;;2.97;;
10416;SDS011;62605;49.432;8.680;2023-06-26T13:05:11;4.00;;;2.97;;
10416;SDS011;62605;49.432;8.680;2023-06-26T13:07:38;3.65;;;2.53;;
10416;SDS011;62605;49.432;8.680;2023-06-26T13:10:06;4.20;;;3.35;;
10416;SDS011;62605;49.432;8.680;2023-06-26T13:12:35;5.07;;;3.25;;
10416;SDS011;62605;49.432;8.680;2023-06-26T13:15:03;6.32;;;3.90;;
10416;SDS011;62605;49.432;8.680;2023-06-26T13:17:31;5.68;;;3.58;;
10416;SDS011;62605;49.432;8.680;2023-06-26T13:19:58;4.05;;;3.47;;
10416;SDS011;62605;49.432;8.680;2023-06-26T13:22:25;4.05;;;3.05;;
10416;SDS011;62605;49.432;8.680;2023-06-26T13:24:52;4.72;;;3.22;;
10416;SDS011;62605;49.432;8.680;2023-06-26T13:27:19;6.45;;;3.80;;
10416;SDS011;62605;49.432;8.680;2023-06-26T13:29:46;5.47;;;3.53;;
10416;SDS011;62605;49.432;8.680;2023-06-26T13:32:14;4.90;;;3.72;;
10416;SDS011;62605;49.432;8.680;2023-06-26T13:34:41;7.65;;;4.10;;
10416;SDS011;62605;49.432;8.680;2023-06-26T13:37:08;5.07;;;3.80;;
10416;SDS011;62605;49.432;8.680;2023-06-26T13:39:36;7.35;;;3.42;;
10416;SDS011;62605;49.432;8.680;2023-06-26T13:42:03;6.13;;;3.67;;
10416;SDS011;62605;49.432;8.680;2023-06-26T13:44:31;6.97;;;3.95;;
10416;SDS011;62605;49.432;8.680;2023-06-26T13:46:58;4.97;;;4.28;;
10416;SDS011;62605;49.432;8.680;2023-06-26T13:49:26;7.82;;;5.15;;
10416;SDS011;62605;49.432;8.680;2023-06-26T13:51:53;7.55;;;5.35;;
10416;SDS011;62605;49.432;8.680;2023-06-26T13:54:20;9.40;;;5.80;;
10416;SDS011;62605;49.432;8.680;2023-06-26T13:56:47;7.53;;;5.70;;
10416;SDS011;62605;49.432;8.680;2023-06-26T13:59:14;6.88;;;5.43;;
10416;SDS011;62605;49.432;8.680;2023-06-26T14:01:43;7.65;;;5.97;;
10416;SDS011;62605;49.432;8.680;2023-06-26T14:04:12;8.90;;;5.95;;
10416;SDS011;62605;49.432;8.680;2023-06-26T14:06:40;8.82;;;5.78;;
10416;SDS011;62605;49.432;8.680;2023-06-26T14:09:08;8.32;;;4.93;;
10416;SDS011;62605;49.432;8.680;2023-06-26T14:11:36;7.88;;;5.57;;
10416;SDS011;62605;49.432;8.680;2023-06-26T14:14:03;6.68;;;4.93;;
10416;SDS011;62605;49.432;8.680;2023-06-26T14:16:30;6.03;;;4.75;;
10416;SDS011;62605;49.432;8.680;2023-06-26T14:18:58;5.18;;;3.80;;
10416;SDS011;62605;49.432;8.680;2023-06-26T14:21:25;6.00;;;4.30;;
10416;SDS011;62605;49.432;8.680;2023-06-26T14:23:54;5.50;;;3.90;;
10416;SDS011;62605;49.432;8.680;2023-06-26T14:26:21;5.55;;;3.70;;
10416;SDS011;62605;49.432;8.680;2023-06-26T14:28:49;4.35;;;3.63;;
10416;SDS011;62605;49.432;8.680;2023-06-26T14:31:17;5.03;;;3.15;;
10416;SDS011;62605;49.432;8.680;2023-06-26T14:33:45;5.35;;;3.15;;
10416;SDS011;62605;49.432;8.680;2023-06-26T14:36:12;3.63;;;2.72;;
10416;SDS011;62605;49.432;8.680;2023-06-26T14:38:40;4.10;;;2.20;;
10416;SDS011;62605;49.432;8.680;2023-06-26T14:41:08;8.57;;;2.40;;
10416;SDS011;62605;49.432;8.680;2023-06-26T14:43:35;4.05;;;2.10;;
10416;SDS011;62605;49.432;8.680;2023-06-26T14:46:02;3.10;;;1.92;;
10416;SDS011;62605;49.432;8.680;2023-06-26T14:48:29;2.60;;;1.88;;
10416;SDS011;62605;49.432;8.680;2023-06-26T14:50:56;3.95;;;1.70;;
10416;SDS011;62605;49.432;8.680;2023-06-26T14:53:26;2.72;;;1.50;;
10416;SDS011;62605;49.432;8.680;2023-06-26T14:55:59;1.77;;;1.50;;
10416;SDS011;62605;49.432;8.680;2023-06-26T14:58:29;1.63;;;1.48;;
10416;SDS011;62605;49.432;8.680;2023-06-26T15:00:56;2.47;;;1.67;;
10416;SDS011;62605;49.432;8.680;2023-06-26T15:03:23;3.40;;;1.70;;
10416;SDS011;62605;49.432;8.680;2023-06-26T15:05:51;2.58;;;1.42;;
10416;SDS011;62605;49.432;8.680;2023-06-26T15:08:20;3.00;;;1.88;;
10416;SDS011;62605;49.432;8.680;2023-06-26T15:10:48;3.63;;;1.50;;
10416;SDS011;62605;49.432;8.680;2023-06-26T15:13:19;1.98;;;1.70;;
10416;SDS011;62605;49.432;8.680;2023-06-26T15:15:48;3.05;;;1.45;;